createdAt,value
2023-02-23T00:01:27.646Z,5.75
2023-02-23T00:04:05.325Z,5.74
2023-02-23T00:06:44.475Z,5.72
2023-02-23T00:09:35.420Z,5.71
2023-02-23T00:12:24.107Z,5.67
2023-02-23T00:15:05.118Z,5.64
2023-02-23T00:17:47.891Z,5.57
2023-02-23T00:20:31.755Z,5.47
2023-02-23T00:23:08.982Z,5.40
2023-02-23T00:25:48.024Z,5.32
2023-02-23T00:28:25.225Z,5.27
2023-02-23T00:31:01.254Z,5.20
2023-02-23T00:33:42.553Z,5.14
2023-02-23T00:36:28.907Z,5.08
2023-02-23T00:39:17.516Z,5.02
2023-02-23T00:41:52.730Z,4.97
2023-02-23T00:44:35.204Z,4.94
2023-02-23T00:47:19.004Z,4.92
2023-02-23T00:49:58.070Z,4.90
2023-02-23T00:52:33.617Z,4.86
2023-02-23T00:55:09.185Z,4.81
2023-02-23T00:57:47.273Z,4.76
2023-02-23T01:00:21.517Z,4.74
2023-02-23T01:02:52.443Z,4.68
2023-02-23T01:05:26.806Z,4.63
2023-02-23T01:07:55.758Z,4.58
2023-02-23T01:10:30.037Z,4.54
2023-02-23T01:13:04.882Z,4.51
2023-02-23T01:15:44.848Z,4.49
2023-02-23T01:18:24.478Z,4.49
2023-02-23T01:20:58.928Z,4.48
2023-02-23T01:23:30.528Z,4.46
2023-02-23T01:26:03.948Z,4.42
2023-02-23T01:28:40.810Z,4.38
2023-02-23T01:31:10.575Z,4.32
2023-02-23T01:33:41.740Z,4.29
2023-02-23T01:36:13.425Z,4.28
2023-02-23T01:38:47.511Z,4.28
2023-02-23T01:41:23.999Z,4.29
2023-02-23T01:44:06.551Z,4.29
2023-02-23T01:46:46.084Z,4.31
2023-02-23T01:49:27.001Z,4.34
2023-02-23T01:52:16.768Z,4.36
2023-02-23T01:54:56.998Z,4.36
2023-02-23T01:57:27.913Z,4.38
2023-02-23T01:59:56.946Z,4.39
2023-02-23T02:02:34.737Z,4.42
2023-02-23T02:05:13.478Z,4.42
2023-02-23T02:07:59.183Z,4.40
2023-02-23T02:10:48.266Z,4.38
2023-02-23T02:13:31.071Z,4.32
2023-02-23T02:16:31.434Z,4.28
2023-02-23T02:19:34.484Z,4.21
2023-02-23T02:22:15.622Z,4.12
2023-02-23T02:25:20.746Z,4.04
2023-02-23T02:28:45.166Z,3.97
2023-02-23T02:31:55.001Z,3.87
2023-02-23T02:35:16.415Z,3.77
2023-02-23T02:38:20.700Z,3.67
2023-02-23T02:41:27.094Z,3.58
2023-02-23T02:44:57.579Z,3.47
2023-02-23T02:47:48.343Z,3.35
2023-02-23T02:50:40.786Z,3.29
2023-02-23T02:53:20.900Z,3.25
2023-02-23T02:56:05.577Z,3.21
2023-02-23T02:58:53.665Z,3.20
2023-02-23T03:01:45.988Z,3.18
2023-02-23T03:04:50.312Z,3.17
2023-02-23T03:07:52.752Z,3.12
2023-02-23T03:11:01.197Z,3.08
2023-02-23T03:14:16.449Z,2.99
2023-02-23T03:17:39.722Z,2.94
2023-02-23T03:20:57.721Z,2.90
2023-02-23T03:24:37.605Z,2.90
2023-02-23T03:28:15.862Z,2.92
2023-02-23T03:31:22.453Z,2.95
2023-02-23T03:34:32.033Z,2.99
2023-02-23T03:38:05.048Z,3.07
2023-02-23T03:41:10.619Z,3.18
2023-02-23T03:44:19.928Z,3.30
2023-02-23T03:47:38.033Z,3.38
2023-02-23T03:51:02.479Z,3.42
2023-02-23T03:54:33.519Z,3.51
2023-02-23T03:57:44.216Z,3.63
2023-02-23T04:01:01.043Z,3.73
2023-02-23T04:04:12.892Z,3.81
2023-02-23T04:07:21.125Z,3.86
2023-02-23T04:10:23.087Z,3.89
2023-02-23T04:13:38.210Z,3.89
2023-02-23T04:16:23.542Z,3.87
2023-02-23T04:19:09.757Z,3.84
2023-02-23T04:21:45.675Z,3.82
2023-02-23T04:24:28.488Z,3.82
2023-02-23T04:27:11.266Z,3.82
2023-02-23T04:29:45.335Z,3.81
2023-02-23T04:32:22.794Z,3.81
2023-02-23T04:34:56.960Z,3.81
2023-02-23T04:37:28.883Z,3.78
2023-02-23T04:40:02.079Z,3.80
2023-02-23T04:42:33.971Z,3.79
2023-02-23T04:45:08.290Z,3.74
2023-02-23T04:47:36.541Z,3.67
2023-02-23T04:50:14.544Z,3.66
2023-02-23T04:52:52.082Z,3.65
2023-02-23T04:55:27.134Z,3.64
2023-02-23T04:58:04.623Z,3.65
2023-02-23T05:00:39.653Z,3.66
2023-02-23T05:03:17.658Z,3.66
2023-02-23T05:05:46.263Z,3.66
2023-02-23T05:08:17.305Z,3.66
2023-02-23T05:10:48.497Z,3.66
2023-02-23T05:13:26.892Z,3.65
2023-02-23T05:16:01.606Z,3.66
2023-02-23T05:18:35.125Z,3.66
2023-02-23T05:21:11.225Z,3.68
2023-02-23T05:23:45.369Z,3.70
2023-02-23T05:26:19.475Z,3.76
2023-02-23T05:28:52.899Z,3.83
2023-02-23T05:31:28.658Z,3.88
2023-02-23T05:34:07.962Z,3.93
2023-02-23T05:36:48.188Z,3.98
2023-02-23T05:39:18.994Z,4.01
2023-02-23T05:41:51.565Z,4.07
2023-02-23T05:44:20.302Z,4.12
2023-02-23T05:47:02.283Z,4.14
2023-02-23T05:49:39.666Z,4.12
2023-02-23T05:52:13.303Z,4.10
2023-02-23T05:54:49.813Z,4.13
2023-02-23T05:57:24.390Z,4.15
2023-02-23T05:59:57.931Z,4.15
2023-02-23T06:02:26.920Z,4.18
2023-02-23T06:05:10.432Z,4.15
2023-02-23T06:07:48.156Z,4.17
2023-02-23T06:10:27.354Z,4.20
2023-02-23T06:12:59.261Z,4.24
2023-02-23T06:15:42.225Z,4.27
2023-02-23T06:18:18.548Z,4.29
2023-02-23T06:21:01.388Z,4.30
2023-02-23T06:23:37.003Z,4.33
2023-02-23T06:26:11.588Z,4.36
2023-02-23T06:28:51.966Z,4.38
2023-02-23T06:31:25.452Z,4.44
2023-02-23T06:34:01.393Z,4.54
2023-02-23T06:36:41.903Z,4.60
2023-02-23T06:39:15.245Z,4.67
2023-02-23T06:41:51.717Z,4.68
2023-02-23T06:44:28.586Z,4.68
2023-02-23T06:47:07.015Z,4.69
2023-02-23T06:49:41.275Z,4.73
2023-02-23T06:52:13.747Z,4.78
2023-02-23T06:54:42.291Z,4.83
2023-02-23T06:57:16.752Z,4.88
2023-02-23T06:59:53.556Z,4.96
2023-02-23T07:02:35.410Z,5.06
2023-02-23T07:05:15.330Z,5.14
2023-02-23T07:07:52.423Z,5.17
2023-02-23T07:10:29.245Z,5.25
2023-02-23T07:13:01.289Z,5.28
2023-02-23T07:15:50.310Z,5.38
2023-02-23T07:18:27.229Z,5.35
2023-02-23T07:21:08.941Z,5.41
2023-02-23T07:23:52.238Z,5.34
2023-02-23T07:26:37.665Z,5.35
2023-02-23T07:29:22.498Z,5.38
2023-02-23T07:32:07.030Z,5.41
2023-02-23T07:34:46.656Z,5.43
2023-02-23T07:37:28.467Z,5.42
2023-02-23T07:40:15.789Z,5.43
2023-02-23T07:42:56.079Z,5.41
2023-02-23T07:45:37.277Z,5.40
2023-02-23T07:48:20.806Z,5.41
2023-02-23T07:51:04.927Z,5.45
2023-02-23T07:53:49.106Z,5.46
2023-02-23T07:56:43.848Z,5.53
2023-02-23T07:59:29.428Z,5.58
2023-02-23T08:02:16.986Z,5.65
2023-02-23T08:04:54.534Z,5.72
2023-02-23T08:07:27.926Z,5.80
2023-02-23T08:10:00.131Z,5.93
2023-02-23T08:12:31.498Z,6.06
2023-02-23T08:15:00.338Z,6.19
2023-02-23T08:17:34.479Z,6.31
2023-02-23T08:20:04.096Z,6.46
2023-02-23T08:22:48.449Z,6.60
2023-02-23T08:25:20.904Z,6.72
2023-02-23T08:27:54.993Z,6.78
2023-02-23T08:30:26.569Z,6.86
2023-02-23T08:32:55.430Z,6.97
2023-02-23T08:35:24.307Z,7.07
2023-02-23T08:37:58.288Z,7.15
2023-02-23T08:40:39.577Z,7.26
2023-02-23T08:43:29.684Z,7.38
2023-02-23T08:46:02.821Z,7.46
2023-02-23T08:48:39.301Z,7.55
2023-02-23T08:51:14.966Z,7.62
2023-02-23T08:53:49.949Z,7.67
2023-02-23T08:56:42.442Z,7.72
2023-02-23T08:59:19.592Z,7.80
2023-02-23T09:01:49.505Z,7.89
2023-02-23T09:04:26.780Z,8.00
2023-02-23T09:06:56.431Z,8.07
2023-02-23T09:09:27.247Z,8.19
2023-02-23T09:12:03.282Z,8.29
2023-02-23T09:14:37.094Z,8.41
2023-02-23T09:17:13.981Z,8.51
2023-02-23T09:19:58.346Z,8.59
2023-02-23T09:22:49.158Z,8.61
2023-02-23T09:25:23.018Z,8.65
2023-02-23T09:28:00.195Z,8.70
2023-02-23T09:30:33.154Z,8.73
2023-02-23T09:33:02.194Z,8.71
2023-02-23T09:35:30.847Z,8.76
2023-02-23T09:38:04.068Z,8.86
2023-02-23T09:40:58.557Z,8.93
2023-02-23T09:43:33.834Z,8.98
2023-02-23T09:46:36.924Z,9.02
2023-02-23T09:49:14.678Z,9.12
2023-02-23T09:51:55.451Z,9.21
2023-02-23T09:54:36.120Z,9.27
2023-02-23T09:57:15.258Z,9.35
2023-02-23T09:59:45.553Z,9.41
2023-02-23T10:03:09.282Z,9.45
2023-02-23T10:05:58.417Z,9.52
2023-02-23T10:08:59.770Z,9.57
2023-02-23T10:11:56.901Z,9.65
2023-02-23T10:15:13.370Z,9.73
2023-02-23T10:17:59.377Z,9.83
2023-02-23T10:20:53.794Z,9.93
2023-02-23T10:23:40.425Z,10.01
2023-02-23T10:26:26.563Z,10.07
2023-02-23T10:29:06.104Z,10.12
2023-02-23T10:31:48.462Z,10.23
2023-02-23T10:34:25.390Z,10.36
2023-02-23T10:37:08.431Z,10.47
2023-02-23T10:39:46.583Z,10.52
2023-02-23T10:42:32.216Z,10.59
2023-02-23T10:45:19.163Z,10.64
2023-02-23T10:47:52.360Z,10.71
2023-02-23T10:50:31.560Z,10.76
2023-02-23T10:53:22.529Z,10.86
2023-02-23T10:56:11.362Z,10.99
2023-02-23T10:58:51.244Z,11.02
2023-02-23T11:02:01.908Z,11.06
2023-02-23T11:04:53.738Z,11.07
2023-02-23T11:07:30.563Z,11.17
2023-02-23T11:10:27.447Z,11.28
2023-02-23T11:13:05.947Z,11.40
2023-02-23T11:15:50.831Z,11.57
2023-02-23T11:18:27.335Z,11.71
2023-02-23T11:21:11.954Z,11.80
2023-02-23T11:23:46.174Z,11.89
2023-02-23T11:26:55.230Z,11.91
2023-02-23T11:29:47.613Z,11.97
2023-02-23T11:32:27.151Z,11.98
2023-02-23T11:35:54.564Z,12.08
2023-02-23T11:38:33.465Z,12.14
2023-02-23T11:41:33.286Z,12.24
2023-02-23T11:44:27.726Z,12.39
2023-02-23T11:47:20.401Z,12.45
2023-02-23T11:50:00.367Z,12.55
2023-02-23T11:52:32.742Z,12.63
2023-02-23T11:55:08.115Z,12.76
2023-02-23T11:57:37.454Z,13.04
2023-02-23T12:00:34.064Z,13.27
2023-02-23T12:03:19.909Z,13.45
2023-02-23T12:06:02.903Z,13.64
2023-02-23T12:08:57.867Z,13.83
2023-02-23T12:11:52.184Z,14.11
2023-02-23T12:14:59.039Z,14.30
2023-02-23T12:17:41.153Z,14.38
2023-02-23T12:20:30.342Z,14.42
2023-02-23T12:23:11.291Z,14.56
2023-02-23T12:25:56.691Z,14.69
2023-02-23T12:28:39.910Z,14.82
2023-02-23T12:32:05.938Z,14.95
2023-02-23T12:34:56.655Z,15.13
2023-02-23T12:38:09.543Z,15.19
2023-02-23T12:40:44.509Z,15.41
2023-02-23T12:43:27.304Z,15.55
2023-02-23T12:46:03.946Z,15.67
2023-02-23T12:49:03.645Z,15.68
2023-02-23T12:52:09.218Z,15.63
2023-02-23T12:54:37.911Z,15.72
2023-02-23T12:57:15.093Z,15.71
2023-02-23T13:00:30.585Z,15.73
2023-02-23T13:03:26.702Z,15.87
2023-02-23T13:06:14.977Z,16.07
2023-02-23T13:08:56.887Z,16.18
2023-02-23T13:12:11.837Z,16.24
2023-02-23T13:14:49.696Z,16.43
2023-02-23T13:17:36.048Z,16.53
2023-02-23T13:20:44.319Z,16.60
2023-02-23T13:23:40.479Z,16.84
2023-02-23T13:26:26.971Z,17.00
2023-02-23T13:29:13.292Z,17.06
2023-02-23T13:31:43.914Z,17.31
2023-02-23T13:34:30.315Z,17.39
2023-02-23T13:37:03.687Z,17.42
2023-02-23T13:40:11.058Z,17.25
2023-02-23T13:43:19.748Z,17.28
2023-02-23T13:46:32.237Z,17.27
2023-02-23T13:49:58.401Z,17.25
2023-02-23T13:52:42.682Z,17.12
2023-02-23T13:55:54.320Z,17.08
2023-02-23T13:58:32.923Z,17.03
2023-02-23T14:01:27.035Z,17.09
2023-02-23T14:04:01.909Z,17.11
2023-02-23T14:06:36.993Z,17.09
2023-02-23T14:09:22.188Z,17.15
2023-02-23T14:12:18.523Z,17.25
2023-02-23T14:14:50.421Z,17.40
2023-02-23T14:17:19.427Z,17.47
2023-02-23T14:20:24.265Z,17.55
2023-02-23T14:23:29.234Z,17.55
2023-02-23T14:26:18.342Z,17.55
2023-02-23T14:29:27.029Z,17.41
2023-02-23T14:32:25.676Z,17.26
2023-02-23T14:35:00.909Z,16.98
2023-02-23T14:37:35.482Z,16.83
2023-02-23T14:40:16.837Z,16.66
2023-02-23T14:43:06.038Z,16.44
2023-02-23T14:45:45.427Z,16.09
2023-02-23T14:48:19.636Z,15.84
2023-02-23T14:50:48.516Z,15.69
2023-02-23T14:53:31.780Z,15.59
2023-02-23T14:56:32.569Z,15.42
2023-02-23T14:59:23.029Z,15.25
2023-02-23T15:01:56.514Z,15.07
2023-02-23T15:04:39.040Z,14.92
2023-02-23T15:07:29.000Z,14.82
2023-02-23T15:10:10.943Z,14.72
2023-02-23T15:12:42.922Z,14.60
2023-02-23T15:15:31.159Z,14.51
2023-02-23T15:18:09.864Z,14.42
2023-02-23T15:20:46.065Z,14.32
2023-02-23T15:23:18.917Z,14.21
2023-02-23T15:26:23.739Z,14.11
2023-02-23T15:28:56.564Z,13.99
2023-02-23T15:31:31.683Z,13.89
2023-02-23T15:34:10.955Z,13.80
2023-02-23T15:36:47.431Z,13.70
2023-02-23T15:39:41.699Z,13.59
2023-02-23T15:42:29.763Z,13.45
2023-02-23T15:45:30.146Z,13.34
2023-02-23T15:48:18.626Z,13.20
2023-02-23T15:50:57.084Z,13.03
2023-02-23T15:54:00.535Z,12.88
2023-02-23T15:56:42.682Z,12.75
2023-02-23T15:59:55.765Z,12.64
2023-02-23T16:02:30.468Z,12.48
2023-02-23T16:05:30.354Z,12.38
2023-02-23T16:08:37.326Z,12.24
2023-02-23T16:11:19.533Z,12.09
2023-02-23T16:14:07.288Z,11.96
2023-02-23T16:16:49.919Z,11.84
2023-02-23T16:19:44.315Z,11.71
2023-02-23T16:22:41.035Z,11.57
2023-02-23T16:25:17.345Z,11.42
2023-02-23T16:27:56.308Z,11.31
2023-02-23T16:30:35.148Z,11.20
2023-02-23T16:33:19.365Z,11.09
2023-02-23T16:36:25.107Z,11.01
2023-02-23T16:39:01.275Z,10.88
2023-02-23T16:41:38.483Z,10.75
2023-02-23T16:44:14.785Z,10.62
2023-02-23T16:47:13.468Z,10.50
2023-02-23T16:49:48.363Z,10.39
2023-02-23T16:52:25.801Z,10.31
2023-02-23T16:54:56.118Z,10.19
2023-02-23T16:57:39.151Z,10.10
2023-02-23T17:00:25.507Z,10.03
2023-02-23T17:03:00.460Z,9.93
2023-02-23T17:05:34.080Z,9.85
2023-02-23T17:08:07.265Z,9.73
2023-02-23T17:10:37.261Z,9.63
2023-02-23T17:13:30.178Z,9.56
2023-02-23T17:16:05.321Z,9.47
2023-02-23T17:18:45.093Z,9.40
2023-02-23T17:21:23.974Z,9.31
2023-02-23T17:24:04.538Z,9.22
2023-02-23T17:26:52.794Z,9.16
2023-02-23T17:29:25.714Z,9.09
2023-02-23T17:32:02.664Z,9.04
2023-02-23T17:34:43.380Z,8.97
2023-02-23T17:37:14.755Z,8.90
2023-02-23T17:39:52.266Z,8.83
2023-02-23T17:42:38.440Z,8.76
2023-02-23T17:45:12.458Z,8.69
2023-02-23T17:47:48.540Z,8.63
2023-02-23T17:50:21.957Z,8.58
2023-02-23T17:53:03.124Z,8.52
2023-02-23T17:55:41.322Z,8.48
2023-02-23T17:58:13.791Z,8.44
2023-02-23T18:00:45.915Z,8.39
2023-02-23T18:03:21.264Z,8.35
2023-02-23T18:05:54.911Z,8.29
2023-02-23T18:08:34.983Z,8.22
2023-02-23T18:11:08.145Z,8.18
2023-02-23T18:13:50.079Z,8.15
2023-02-23T18:16:24.894Z,8.12
2023-02-23T18:19:07.049Z,8.07
2023-02-23T18:21:42.330Z,8.04
2023-02-23T18:24:19.074Z,8.02
2023-02-23T18:26:48.284Z,8.02
2023-02-23T18:29:31.069Z,7.98
2023-02-23T18:32:08.880Z,7.93
2023-02-23T18:34:52.664Z,7.91
2023-02-23T18:37:36.758Z,7.87
2023-02-23T18:40:26.473Z,7.81
2023-02-23T18:43:25.130Z,7.74
2023-02-23T18:45:58.990Z,7.70
2023-02-23T18:48:47.917Z,7.64
2023-02-23T18:51:24.122Z,7.59
2023-02-23T18:53:57.628Z,7.53
2023-02-23T18:56:57.270Z,7.47
2023-02-23T18:59:35.784Z,7.40
2023-02-23T19:02:11.728Z,7.35
2023-02-23T19:04:52.753Z,7.31
2023-02-23T19:07:24.586Z,7.28
2023-02-23T19:10:05.095Z,7.26
2023-02-23T19:12:44.558Z,7.23
2023-02-23T19:15:17.002Z,7.19
2023-02-23T19:17:53.643Z,7.14
2023-02-23T19:20:33.417Z,7.09
2023-02-23T19:23:20.192Z,7.02
2023-02-23T19:26:08.880Z,6.98
2023-02-23T19:28:54.738Z,6.91
2023-02-23T19:32:10.648Z,6.85
2023-02-23T19:35:15.032Z,6.77
2023-02-23T19:38:03.085Z,6.72
2023-02-23T19:40:47.498Z,6.69
2023-02-23T19:43:32.553Z,6.65
2023-02-23T19:46:23.649Z,6.63
2023-02-23T19:49:11.807Z,6.59
2023-02-23T19:52:00.650Z,6.54
2023-02-23T19:55:07.347Z,6.48
2023-02-23T19:57:56.286Z,6.43
2023-02-23T20:00:57.273Z,6.38
2023-02-23T20:03:56.804Z,6.34
2023-02-23T20:07:05.172Z,6.31
2023-02-23T20:10:26.806Z,6.25
2023-02-23T20:13:15.308Z,6.19
2023-02-23T20:16:35.452Z,6.09
2023-02-23T20:19:13.141Z,6.07
2023-02-23T20:21:57.697Z,6.05
2023-02-23T20:24:59.775Z,6.03
2023-02-23T20:27:44.148Z,6.02
2023-02-23T20:30:29.855Z,6.01
2023-02-23T20:33:36.572Z,6.02
2023-02-23T20:36:13.670Z,5.98
2023-02-23T20:38:51.042Z,5.93
2023-02-23T20:41:32.187Z,5.83
2023-02-23T20:44:11.347Z,5.74
2023-02-23T20:46:51.833Z,5.70
2023-02-23T20:49:27.736Z,5.63
2023-02-23T20:52:24.617Z,5.54
2023-02-23T20:55:00.989Z,5.45
2023-02-23T20:57:36.123Z,5.38
2023-02-23T21:00:23.997Z,5.30
2023-02-23T21:03:02.330Z,5.24
2023-02-23T21:05:38.264Z,5.20
2023-02-23T21:08:09.674Z,5.15
2023-02-23T21:10:48.810Z,5.08
2023-02-23T21:13:34.454Z,4.99
2023-02-23T21:16:03.405Z,4.92
2023-02-23T21:18:32.352Z,4.87
2023-02-23T21:21:15.603Z,4.84
2023-02-23T21:23:52.952Z,4.78
2023-02-23T21:26:30.680Z,4.76
2023-02-23T21:29:08.196Z,4.77
2023-02-23T21:31:39.823Z,4.79
2023-02-23T21:34:13.140Z,4.81
2023-02-23T21:36:41.561Z,4.83
2023-02-23T21:39:15.663Z,4.86
2023-02-23T21:41:49.169Z,4.91
2023-02-23T21:44:34.075Z,4.96
2023-02-23T21:47:07.514Z,4.99
2023-02-23T21:49:41.317Z,5.01
2023-02-23T21:52:25.747Z,4.96
2023-02-23T21:55:07.896Z,4.91
2023-02-23T21:57:47.151Z,4.83
2023-02-23T22:00:31.164Z,4.77
2023-02-23T22:03:08.065Z,4.70
2023-02-23T22:05:39.379Z,4.64
2023-02-23T22:08:15.809Z,4.53
2023-02-23T22:10:51.061Z,4.32
2023-02-23T22:13:26.018Z,4.09
2023-02-23T22:16:01.213Z,3.94
2023-02-23T22:18:41.188Z,3.86
2023-02-23T22:21:14.439Z,3.77
2023-02-23T22:23:54.688Z,3.72
2023-02-23T22:26:32.056Z,3.69
2023-02-23T22:29:10.814Z,3.66
2023-02-23T22:31:45.267Z,3.64
2023-02-23T22:34:26.079Z,3.62
2023-02-23T22:37:04.065Z,3.58
2023-02-23T22:39:35.016Z,3.54
2023-02-23T22:42:13.310Z,3.51
2023-02-23T22:44:54.835Z,3.48
2023-02-23T22:47:30.897Z,3.45
2023-02-23T22:50:14.119Z,3.42
2023-02-23T22:52:50.079Z,3.41
2023-02-23T22:55:23.689Z,3.38
2023-02-23T22:57:59.809Z,3.38
2023-02-23T23:00:39.616Z,3.35
2023-02-23T23:03:14.845Z,3.32
2023-02-23T23:05:53.653Z,3.33
2023-02-23T23:08:36.569Z,3.36
2023-02-23T23:11:20.128Z,3.38
2023-02-23T23:14:07.018Z,3.40
2023-02-23T23:16:48.502Z,3.43
2023-02-23T23:19:57.672Z,3.43
2023-02-23T23:22:36.238Z,3.40
2023-02-23T23:25:32.096Z,3.34
2023-02-23T23:28:16.827Z,3.35
2023-02-23T23:31:13.901Z,3.37
2023-02-23T23:34:00.496Z,3.37
2023-02-23T23:36:55.474Z,3.34
2023-02-23T23:39:41.956Z,3.35
2023-02-23T23:42:29.276Z,3.33
2023-02-23T23:45:08.299Z,3.34
2023-02-23T23:48:01.882Z,3.33
2023-02-23T23:50:51.890Z,3.29
2023-02-23T23:53:36.984Z,3.22
2023-02-23T23:56:28.671Z,3.20
2023-02-23T23:59:26.399Z,3.13
